KLAL/LAL METAR and TAF weather

Enter ICAO airport designator
Station Type Date Time Source
KLAL METAR 2019/06/27 04:15 UTC NOAA

KLAL 270415Z AUTO 08003KT 10SM VCTS CLR 27/22 A3013 RMK AO2 LTG DSNT W


Station Type Date Time Source
KLAL Decoded METAR 2019/06/27 04:15 UTC NOAA

Lakeland Regional, FL, United States (KLAL) 27-59N 082-01W
Jun 27, 2019 - 12:15 AM EDT / 2019.06.27 0415 UTC
Wind: from the E (080 degrees) at 3 MPH (3 KT):0
Visibility: 10 mile(s):0
Sky conditions: clear
Weather: thunder in the vicinity; Lightning observed
Temperature: 80 F (27 C)
Dew Point: 71 F (22 C)
Relative Humidity: 74%
Pressure (altimeter): 30.13 in. Hg (1020 hPa)
ob: KLAL 270415Z AUTO 08003KT 10SM VCTS CLR 27/22 A3013 RMK AO2 LTG DSNT W AND NW PNO
cycle: 4

Station Type Date Time Source
KLAL TAF 2019/06/26 18:28 UTC NOAA

TAF KLAL 261725Z 2618/2718 06008KT P6SM SCT050 SCT250
FM262100 05006KT P6SM VCTS SCT030CB BKN200
FM270000 07007KT P6SM VCSH SCT030 BKN200
FM270600 VRB03KT P6SM FEW025 BKN080
FM271200 05005KT P6SM FEW035 SCT200

Example: see airport list